Time;durP1;ratioP1;P1;durP2;ratioP2;P2;SDS_P1;SDS_P2;PMS_P1;PMS_P2;Temp;Humidity;BMP_temperature;BMP_pressure;BME280_temperature;BME280_humidity;BME280_pressure;Samples;Min_cycle;Max_cycle;Signal;HPM_P1;HPM_P2
2022/08/28 04:02:26;;;;;;;23.33;14.83;;;19.20;99.90;;;;;;5100117;23;20499;-75
2022/08/28 04:04:55;;;;;;;21.13;16.03;;;19.20;99.90;;;;;;4986632;28;20464;-75
2022/08/28 04:07:22;;;;;;;19.53;15.50;;;19.20;99.90;;;;;;4986876;28;20467;-76
2022/08/28 04:09:49;;;;;;;19.73;16.27;;;19.20;99.90;;;;;;4986837;28;20459;-75
2022/08/28 04:12:15;;;;;;;19.30;15.93;;;19.20;99.90;;;;;;4986666;28;21100;-80
2022/08/28 04:14:42;;;;;;;22.43;15.70;;;19.20;99.90;;;;;;4985907;28;21031;-78
2022/08/28 04:17:09;;;;;;;21.53;16.23;;;19.20;99.90;;;;;;4986689;28;20459;-75
2022/08/28 04:19:38;;;;;;;22.73;16.07;;;19.20;99.90;;;;;;4985698;28;20560;-78
2022/08/28 04:22:05;;;;;;;18.00;16.10;;;19.20;99.90;;;;;;4987225;28;20491;-80
2022/08/28 04:24:32;;;;;;;21.90;15.63;;;19.20;99.90;;;;;;4988342;28;20959;-75
2022/08/28 04:27:01;;;;;;;18.80;15.30;;;19.20;99.90;;;;;;4989067;28;20557;-75
2022/08/28 04:29:30;;;;;;;22.30;15.20;;;19.20;99.90;;;;;;4988866;28;20455;-75
2022/08/28 04:31:58;;;;;;;22.33;15.67;;;19.20;99.90;;;;;;4987899;28;20488;-77
2022/08/28 04:34:27;;;;;;;21.70;14.93;;;19.20;99.90;;;;;;4988115;28;20828;-78
2022/08/28 04:36:55;;;;;;;20.97;14.60;;;19.10;99.90;;;;;;4989021;28;20456;-76
2022/08/28 04:39:22;;;;;;;18.87;14.60;;;19.00;99.90;;;;;;4989000;28;20459;-75
2022/08/28 04:41:50;;;;;;;16.47;13.70;;;19.00;99.90;;;;;;4988551;28;20483;-75
2022/08/28 04:44:17;;;;;;;19.10;14.33;;;19.10;99.90;;;;;;4988447;28;20475;-75
2022/08/28 04:46:44;;;;;;;20.40;13.90;;;19.00;99.90;;;;;;4988800;28;20524;-74
2022/08/28 04:49:14;;;;;;;15.33;13.73;;;19.10;99.90;;;;;;4988612;28;20459;-74
2022/08/28 04:51:41;;;;;;;19.10;14.20;;;19.00;99.90;;;;;;4988448;28;20576;-75
2022/08/28 04:54:10;;;;;;;18.23;13.00;;;19.10;99.90;;;;;;4987755;28;20955;-77
2022/08/28 04:56:39;;;;;;;18.93;14.00;;;19.10;99.90;;;;;;4988766;28;20495;-75
2022/08/28 04:59:06;;;;;;;19.13;14.43;;;19.10;99.90;;;;;;4988673;28;20456;-75
2022/08/28 05:01:33;;;;;;;19.67;13.30;;;19.10;99.90;;;;;;4988111;28;21132;-75
2022/08/28 05:04:04;;;;;;;17.57;13.80;;;19.20;99.90;;;;;;4987837;28;20885;-77
2022/08/28 05:06:32;;;;;;;16.43;13.30;;;19.10;99.90;;;;;;4988246;28;20456;-76
2022/08/28 05:09:01;;;;;;;15.90;13.23;;;19.10;99.90;;;;;;4988137;28;20459;-81
2022/08/28 05:11:31;;;;;;;19.10;13.40;;;19.10;99.90;;;;;;4988673;28;20471;-74
2022/08/28 05:13:57;;;;;;;19.13;13.50;;;19.20;99.90;;;;;;4988084;28;20859;-81
2022/08/28 05:16:24;;;;;;;24.97;14.17;;;19.20;99.90;;;;;;4988129;28;21072;-74
2022/08/28 05:18:51;;;;;;;16.50;13.13;;;19.20;99.90;;;;;;4988493;28;20459;-75
2022/08/28 05:21:20;;;;;;;17.60;15.37;;;19.20;99.90;;;;;;4988090;28;21026;-77
2022/08/28 05:23:48;;;;;;;16.73;14.93;;;19.20;99.90;;;;;;4988194;28;20940;-79
2022/08/28 05:26:17;;;;;;;20.03;15.00;;;19.20;99.90;;;;;;4987949;28;20851;-77
2022/08/28 05:28:45;;;;;;;18.60;15.10;;;19.20;99.90;;;;;;4987992;28;21226;-75
2022/08/28 05:31:15;;;;;;;20.30;17.30;;;19.20;99.90;;;;;;4988823;28;20474;-75
2022/08/28 05:33:42;;;;;;;18.50;16.00;;;19.20;99.90;;;;;;4992091;28;20826;-74
2022/08/28 05:36:10;;;;;;;20.87;15.43;;;19.20;99.90;;;;;;4991524;28;20494;-77
2022/08/28 05:38:38;;;;;;;21.33;14.57;;;19.20;99.90;;;;;;4992720;28;20466;-75
2022/08/28 05:41:05;;;;;;;17.13;13.80;;;19.20;99.90;;;;;;4992476;28;20518;-75
2022/08/28 05:43:32;;;;;;;18.40;13.60;;;19.20;99.90;;;;;;4992709;28;20455;-75
2022/08/28 05:46:02;;;;;;;15.70;13.20;;;19.20;99.90;;;;;;4991488;28;20832;-75
2022/08/28 05:48:30;;;;;;;17.13;13.83;;;19.20;99.90;;;;;;4991706;28;20477;-75
2022/08/28 05:50:57;;;;;;;17.60;13.30;;;19.20;99.90;;;;;;4992012;28;20920;-75
2022/08/28 05:53:25;;;;;;;18.93;13.53;;;19.20;99.90;;;;;;4991876;28;20463;-77
2022/08/28 05:55:52;;;;;;;17.17;13.00;;;19.20;99.90;;;;;;4991809;28;20514;-74
2022/08/28 05:58:30;;;;;;;15.40;11.50;;;19.20;99.90;;;;;;4992083;28;20969;-74
2022/08/28 06:01:05;;;;;;;18.97;14.13;;;19.20;99.90;;;;;;4991758;28;20842;-75
2022/08/28 06:03:32;;;;;;;16.10;13.10;;;19.20;99.90;;;;;;4991952;28;20451;-78
2022/08/28 06:05:59;;;;;;;17.63;12.60;;;19.30;99.90;;;;;;4991108;28;20451;-77
2022/08/28 06:08:26;;;;;;;16.43;12.90;;;19.20;99.90;;;;;;4991442;28;20468;-80
2022/08/28 06:10:53;;;;;;;15.57;12.33;;;19.30;99.90;;;;;;4991549;28;20483;-77
2022/08/28 06:13:20;;;;;;;19.47;13.27;;;19.30;99.90;;;;;;4991731;28;20565;-77
2022/08/28 06:15:47;;;;;;;16.00;12.30;;;19.30;99.90;;;;;;4989467;28;20546;-77
2022/08/28 06:18:16;;;;;;;18.00;13.20;;;19.20;99.90;;;;;;4991998;28;20443;-78
2022/08/28 06:20:45;;;;;;;18.20;13.70;;;19.30;99.90;;;;;;4991179;28;21002;-78
2022/08/28 06:23:14;;;;;;;17.23;12.90;;;19.30;99.90;;;;;;4991421;28;20468;-77
2022/08/28 06:25:44;;;;;;;20.40;12.67;;;19.20;99.90;;;;;;4990782;28;20459;-81
2022/08/28 06:28:12;;;;;;;15.50;12.73;;;19.30;99.90;;;;;;4991552;28;20541;-79
2022/08/28 06:30:40;;;;;;;17.70;12.60;;;19.20;99.90;;;;;;4990974;28;20992;-81
2022/08/28 06:33:08;;;;;;;18.93;12.60;;;19.30;99.90;;;;;;4991495;28;20460;-79
2022/08/28 06:35:40;;;;;;;16.80;12.20;;;19.30;99.90;;;;;;4990395;28;20503;-76
2022/08/28 06:38:07;;;;;;;20.47;12.73;;;19.30;99.90;;;;;;4989928;28;20444;-72
2022/08/28 06:40:39;;;;;;;13.83;12.00;;;19.30;99.90;;;;;;4988913;28;20479;-72
2022/08/28 06:43:05;;;;;;;21.20;12.23;;;19.30;99.90;;;;;;4987923;28;20974;-73
2022/08/28 06:45:32;;;;;;;14.97;11.73;;;19.30;99.90;;;;;;4988000;28;20459;-72
2022/08/28 06:47:59;;;;;;;20.00;12.30;;;19.40;99.90;;;;;;4988994;28;20460;-72
2022/08/28 06:50:26;;;;;;;16.47;11.47;;;19.40;99.90;;;;;;4989001;28;20462;-72
2022/08/28 06:52:54;;;;;;;16.00;12.50;;;19.40;99.90;;;;;;4988667;28;20970;-72
2022/08/28 06:55:21;;;;;;;18.33;11.53;;;19.40;99.90;;;;;;4987902;28;20463;-72
2022/08/28 06:57:48;;;;;;;13.50;10.70;;;19.50;99.90;;;;;;4988458;28;20525;-72
2022/08/28 07:00:15;;;;;;;16.20;12.23;;;19.40;99.90;;;;;;4988722;28;20467;-72
2022/08/28 07:02:42;;;;;;;17.97;11.03;;;19.50;99.90;;;;;;4988605;28;20470;-72
2022/08/28 07:05:13;;;;;;;15.33;11.00;;;19.50;99.90;;;;;;4987856;28;20456;-72
2022/08/28 07:07:40;;;;;;;17.40;11.63;;;19.60;99.90;;;;;;4988170;28;20448;-72
2022/08/28 07:10:09;;;;;;;15.87;11.57;;;19.60;99.90;;;;;;4988175;28;21309;-72
2022/08/28 07:12:36;;;;;;;17.93;13.57;;;19.60;99.90;;;;;;4988071;28;20460;-72
2022/08/28 07:15:03;;;;;;;18.60;12.57;;;19.60;99.90;;;;;;4987776;28;21296;-72
2022/08/28 07:17:30;;;;;;;17.73;12.87;;;19.70;99.90;;;;;;4988504;28;20578;-72
2022/08/28 07:19:57;;;;;;;18.50;12.00;;;19.70;99.90;;;;;;4987948;28;20828;-72
2022/08/28 07:22:25;;;;;;;16.40;12.10;;;19.70;99.90;;;;;;4988013;28;20483;-72
2022/08/28 07:24:52;;;;;;;14.07;11.80;;;19.70;99.90;;;;;;4987827;28;20545;-72
2022/08/28 07:27:20;;;;;;;14.73;11.70;;;19.70;99.90;;;;;;4988392;28;20850;-72
2022/08/28 07:29:47;;;;;;;18.03;12.23;;;19.80;99.90;;;;;;4988188;28;20467;-72
2022/08/28 07:32:16;;;;;;;17.70;13.57;;;19.80;99.90;;;;;;4987853;28;20497;-72
2022/08/28 07:34:43;;;;;;;16.57;12.70;;;19.90;99.90;;;;;;4986856;28;20973;-72
2022/08/28 07:37:10;;;;;;;15.23;11.40;;;20.00;99.90;;;;;;4987492;28;20488;-72
2022/08/28 07:39:37;;;;;;;17.93;13.80;;;20.00;99.90;;;;;;4986421;28;20455;-72
2022/08/28 07:42:04;;;;;;;13.23;11.33;;;20.00;99.90;;;;;;4986513;28;20480;-72
2022/08/28 07:44:49;;;;;;;17.40;12.63;;;20.10;99.90;;;;;;4985035;28;20464;-72
2022/08/28 07:47:17;;;;;;;15.43;12.40;;;20.10;99.90;;;;;;4987436;28;20447;-72
2022/08/28 07:49:44;;;;;;;15.00;12.50;;;20.20;99.90;;;;;;4987748;28;20451;-71
2022/08/28 07:52:12;;;;;;;15.50;11.47;;;20.20;99.90;;;;;;4987680;28;20483;-72
2022/08/28 07:54:39;;;;;;;15.63;12.30;;;20.30;99.90;;;;;;4985844;28;20459;-72
2022/08/28 07:57:09;;;;;;;15.13;11.40;;;20.60;99.90;;;;;;4988525;28;20882;-79
2022/08/28 07:59:39;;;;;;;15.97;11.60;;;20.70;99.90;;;;;;4991870;28;20448;-79
2022/08/28 08:02:09;;;;;;;16.70;11.87;;;20.60;99.90;;;;;;4989437;28;20582;-75
2022/08/28 08:04:39;;;;;;;16.80;12.00;;;20.60;99.90;;;;;;4989064;28;20600;-74
2022/08/28 08:07:07;;;;;;;14.03;10.70;;;20.60;99.90;;;;;;4991483;28;20499;-74
2022/08/28 08:09:37;;;;;;;15.87;11.90;;;20.60;99.90;;;;;;4989331;28;20522;-75
2022/08/28 08:12:05;;;;;;;14.60;11.10;;;20.60;99.90;;;;;;4989306;28;20486;-77
2022/08/28 08:14:32;;;;;;;14.60;12.00;;;20.70;99.90;;;;;;4988478;28;20459;-75
2022/08/28 08:17:03;;;;;;;15.10;11.53;;;20.70;99.90;;;;;;4989331;28;20616;-75
2022/08/28 08:19:30;;;;;;;20.40;11.20;;;20.70;99.90;;;;;;4994306;28;20805;-74
2022/08/28 08:21:57;;;;;;;18.20;11.40;;;20.70;99.90;;;;;;4989624;28;20571;-78
2022/08/28 08:24:25;;;;;;;14.23;11.57;;;20.70;99.90;;;;;;4989526;28;20467;-78
2022/08/28 08:26:54;;;;;;;12.83;11.40;;;20.70;99.90;;;;;;4989366;28;20540;-75
2022/08/28 08:29:21;;;;;;;14.17;11.20;;;20.70;99.90;;;;;;4989265;28;20466;-75
2022/08/28 08:31:56;;;;;;;16.43;11.63;;;20.70;99.90;;;;;;4988927;28;20563;-77
2022/08/28 08:34:24;;;;;;;13.30;11.30;;;20.80;99.90;;;;;;4988699;28;20541;-75
2022/08/28 08:36:51;;;;;;;14.90;11.00;;;20.80;99.90;;;;;;4988476;28;20499;-75
2022/08/28 08:39:18;;;;;;;12.97;10.80;;;20.80;99.90;;;;;;4989204;28;20471;-76
2022/08/28 08:41:47;;;;;;;12.07;10.23;;;20.90;99.90;;;;;;4988459;28;20488;-75
2022/08/28 08:44:22;;;;;;;14.50;12.17;;;20.90;99.90;;;;;;4987936;28;20837;-76
2022/08/28 08:46:55;;;;;;;13.87;10.30;;;20.90;99.90;;;;;;4989123;28;20444;-76
2022/08/28 08:49:26;;;;;;;15.30;10.40;;;21.00;99.90;;;;;;4988662;28;20460;-75
2022/08/28 08:51:59;;;;;;;17.20;11.10;;;21.10;99.90;;;;;;4988237;28;20483;-75
2022/08/28 08:54:26;;;;;;;18.30;11.60;;;21.10;99.90;;;;;;4987954;28;20504;-74
2022/08/28 08:56:56;;;;;;;17.90;11.23;;;21.20;99.90;;;;;;4988057;28;20871;-77
2022/08/28 08:59:28;;;;;;;12.53;9.83;;;21.30;99.90;;;;;;4988826;28;20559;-77
2022/08/28 09:02:04;;;;;;;11.20;9.77;;;21.30;99.90;;;;;;4988193;28;20527;-75
2022/08/28 09:04:39;;;;;;;17.67;10.00;;;21.40;99.90;;;;;;4987622;28;20443;-79
2022/08/28 09:07:16;;;;;;;13.77;9.43;;;21.40;99.90;;;;;;4988469;28;20440;-76
2022/08/28 09:09:46;;;;;;;11.07;9.97;;;21.40;99.90;;;;;;4988993;28;20457;-78
2022/08/28 09:12:15;;;;;;;11.23;9.50;;;21.50;99.90;;;;;;4988572;28;20493;-76
2022/08/28 09:14:49;;;;;;;12.13;9.00;;;21.50;99.90;;;;;;4987903;28;20523;-76
2022/08/28 09:17:19;;;;;;;12.57;9.50;;;21.50;99.90;;;;;;4988774;28;20479;-82
2022/08/28 09:19:48;;;;;;;16.17;9.20;;;21.60;99.90;;;;;;4988202;28;20904;-78
2022/08/28 09:22:15;;;;;;;12.27;9.73;;;21.60;99.90;;;;;;4988366;28;20495;-76
2022/08/28 09:24:42;;;;;;;16.73;8.90;;;21.70;99.90;;;;;;4987358;28;20467;-76
2022/08/28 09:27:23;;;;;;;11.23;8.97;;;21.70;99.90;;;;;;4987790;28;20463;-76
2022/08/28 09:29:56;;;;;;;18.20;9.73;;;21.70;99.90;;;;;;4987919;28;20436;-78
2022/08/28 09:32:26;;;;;;;18.70;10.80;;;21.70;99.90;;;;;;4988100;28;20553;-78
2022/08/28 09:35:07;;;;;;;13.63;10.00;;;21.70;99.90;;;;;;4987007;28;20470;-78
2022/08/28 09:37:36;;;;;;;12.57;8.70;;;21.90;99.90;;;;;;4987219;28;20522;-78
2022/08/28 09:40:22;;;;;;;10.17;8.27;;;22.20;99.90;;;;;;4987969;28;20531;-75
2022/08/28 09:45:59;;;;;;;8.67;7.83;;;22.30;99.90;;;;;;4985822;28;20502;-76
2022/08/28 09:48:32;;;;;;;16.00;8.90;;;22.30;99.90;;;;;;4985795;28;21634;-76
2022/08/28 09:51:03;;;;;;;12.53;8.53;;;22.30;99.90;;;;;;4985862;28;20999;-76
2022/08/28 09:53:32;;;;;;;9.53;7.80;;;22.40;99.90;;;;;;4985913;28;20440;-76
2022/08/28 09:56:11;;;;;;;12.13;8.60;;;22.40;99.90;;;;;;4985122;28;20499;-75
2022/08/28 09:58:42;;;;;;;9.23;7.87;;;22.50;99.90;;;;;;4986181;28;20466;-76
2022/08/28 10:01:21;;;;;;;10.93;7.60;;;22.50;99.90;;;;;;4986126;28;20498;-76
2022/08/28 10:03:53;;;;;;;13.57;8.93;;;22.50;99.90;;;;;;4985991;28;20526;-76
2022/08/28 10:06:25;;;;;;;9.40;7.73;;;22.50;99.90;;;;;;4985316;28;20448;-78
2022/08/28 10:09:03;;;;;;;10.20;8.63;;;22.50;99.90;;;;;;4985349;28;20476;-76
2022/08/28 10:11:41;;;;;;;10.20;7.30;;;22.60;99.90;;;;;;4985567;28;20894;-75
2022/08/28 10:14:22;;;;;;;11.03;9.10;;;22.60;99.90;;;;;;4985111;28;20557;-76
2022/08/28 10:16:59;;;;;;;8.23;7.40;;;22.60;99.90;;;;;;4986031;28;20498;-75
2022/08/28 10:19:38;;;;;;;16.07;8.93;;;22.70;99.90;;;;;;4989153;28;20439;-76
2022/08/28 10:22:19;;;;;;;11.63;8.00;;;22.90;99.90;;;;;;4989072;28;20486;-75
2022/08/28 10:25:01;;;;;;;8.03;7.10;;;23.10;99.90;;;;;;4988614;28;20448;-76
2022/08/28 10:27:39;;;;;;;15.57;8.30;;;23.20;99.90;;;;;;4988839;28;20463;-76
2022/08/28 10:30:13;;;;;;;8.23;7.33;;;23.10;99.90;;;;;;4989124;28;20459;-76
2022/08/28 10:33:21;;;;;;;10.33;6.83;;;23.10;99.90;;;;;;4989076;28;20662;-76
2022/08/28 10:35:53;;;;;;;11.73;6.63;;;23.10;99.90;;;;;;4951822;28;20459;-76
2022/08/28 10:38:30;;;;;;;8.47;6.60;;;23.00;99.90;;;;;;4988856;28;20576;-76
2022/08/28 10:41:02;;;;;;;8.63;6.67;;;23.00;99.90;;;;;;4988715;28;20483;-76
2022/08/28 10:43:32;;;;;;;7.83;6.33;;;23.00;99.90;;;;;;4988612;28;20467;-75
2022/08/28 10:46:04;;;;;;;9.40;7.53;;;23.10;99.90;;;;;;4987775;28;20932;-75
2022/08/28 10:48:38;;;;;;;7.73;6.37;;;23.10;99.90;;;;;;4988339;28;20463;-75
2022/08/28 10:51:09;;;;;;;9.63;6.97;;;23.20;99.90;;;;;;4988611;28;20480;-75
2022/08/28 10:53:42;;;;;;;10.50;6.63;;;23.20;99.90;;;;;;4988670;28;20455;-75
2022/08/28 10:56:13;;;;;;;9.63;7.10;;;23.20;99.90;;;;;;4987975;28;20584;-75
2022/08/28 10:58:41;;;;;;;7.90;6.80;;;23.30;99.90;;;;;;4989222;28;20491;-75
2022/08/28 11:01:12;;;;;;;10.20;7.10;;;23.30;99.90;;;;;;4988832;28;20470;-76
2022/08/28 11:03:42;;;;;;;9.50;6.50;;;23.70;99.90;;;;;;4989264;28;20209;-74
2022/08/28 11:06:27;;;;;;;7.40;6.60;;;23.80;99.90;;;;;;4986160;28;20459;-76
2022/08/28 11:08:58;;;;;;;11.33;7.20;;;23.80;99.90;;;;;;4986122;28;20522;-76
2022/08/28 11:11:42;;;;;;;13.03;6.87;;;23.90;99.90;;;;;;4987924;28;20546;-76
2022/08/28 11:14:10;;;;;;;9.10;7.10;;;23.90;99.90;;;;;;4986843;28;20514;-78
2022/08/28 11:16:43;;;;;;;8.43;7.00;;;23.90;99.90;;;;;;4988259;28;20468;-76
2022/08/28 11:19:34;;;;;;;12.63;6.70;;;24.10;99.90;;;;;;4987972;28;20455;-76
2022/08/28 11:22:08;;;;;;;7.90;6.53;;;24.30;99.90;;;;;;4988137;28;20838;-76
2022/08/28 11:24:51;;;;;;;6.80;5.67;;;24.30;99.90;;;;;;4987364;28;20464;-76
2022/08/28 11:27:24;;;;;;;8.33;6.37;;;24.40;99.90;;;;;;4987886;28;20458;-77
2022/08/28 11:30:20;;;;;;;7.70;6.60;;;24.50;99.90;;;;;;4987496;28;20517;-76
2022/08/28 11:33:02;;;;;;;9.20;6.47;;;24.60;99.90;;;;;;4987987;28;20451;-75
2022/08/28 11:35:48;;;;;;;10.17;6.47;;;24.70;99.90;;;;;;4987491;28;20988;-76
2022/08/28 11:38:52;;;;;;;7.97;5.53;;;24.80;99.90;;;;;;4988915;28;20824;-78
2022/08/28 11:41:23;;;;;;;10.63;7.10;;;24.80;99.90;;;;;;4988766;28;20530;-77
2022/08/28 11:43:51;;;;;;;6.30;5.70;;;25.00;99.90;;;;;;4989217;28;20471;-77
2022/08/28 11:46:27;;;;;;;7.57;6.13;;;25.20;99.90;;;;;;4987686;28;20456;-76
2022/08/28 11:48:57;;;;;;;7.60;5.63;;;25.50;99.90;;;;;;4988932;28;20440;-78
2022/08/28 11:51:45;;;;;;;8.63;5.90;;;25.60;99.90;;;;;;4988561;28;20489;-74
2022/08/28 11:54:40;;;;;;;9.50;5.63;;;25.50;99.90;;;;;;4991563;28;20974;-77
2022/08/28 11:57:17;;;;;;;9.90;5.70;;;25.50;99.90;;;;;;4990036;28;20919;-77
2022/08/28 12:00:07;;;;;;;11.63;6.37;;;25.60;99.90;;;;;;4989872;28;20869;-77
2022/08/28 12:02:58;;;;;;;11.17;6.00;;;25.60;99.90;;;;;;4991954;28;20487;-76
2022/08/28 12:05:48;;;;;;;6.23;5.50;;;25.60;99.90;;;;;;4989818;28;20452;-75
2022/08/28 12:08:47;;;;;;;7.40;5.57;;;25.50;99.90;;;;;;4993220;28;20456;-77
2022/08/28 12:11:57;;;;;;;9.80;6.20;;;25.50;99.90;;;;;;4985180;28;20634;-76
2022/08/28 12:15:06;;;;;;;10.13;6.47;;;25.50;99.90;;;;;;4988543;28;20459;-76
2022/08/28 12:17:58;;;;;;;7.13;6.33;;;25.60;99.90;;;;;;4984920;28;20488;-75
2022/08/28 12:20:33;;;;;;;7.23;5.50;;;25.60;99.90;;;;;;4986185;28;20460;-76
2022/08/28 12:23:03;;;;;;;8.50;5.77;;;25.90;99.90;;;;;;4983951;28;20443;-76
2022/08/28 12:25:36;;;;;;;9.73;6.17;;;26.20;99.90;;;;;;4986323;28;20447;-77
2022/08/28 12:28:18;;;;;;;6.83;5.97;;;26.10;99.90;;;;;;4986660;28;20436;-75
2022/08/28 12:30:53;;;;;;;7.87;5.90;;;26.10;99.90;;;;;;4986860;28;20475;-77
2022/08/28 12:33:30;;;;;;;7.00;6.30;;;26.10;99.90;;;;;;4985024;28;20455;-77
2022/08/28 12:36:02;;;;;;;5.53;5.03;;;26.00;99.90;;;;;;4985006;28;20959;-77
2022/08/28 12:38:31;;;;;;;10.87;6.20;;;26.00;99.90;;;;;;4985822;28;21030;-77
2022/08/28 12:40:58;;;;;;;7.10;5.50;;;25.90;99.90;;;;;;4985356;28;20483;-77
2022/08/28 12:43:31;;;;;;;7.70;5.30;;;25.90;99.90;;;;;;4987215;28;20559;-77
2022/08/28 12:46:02;;;;;;;8.93;6.00;;;25.90;99.90;;;;;;4985453;28;20444;-77
2022/08/28 12:48:32;;;;;;;6.30;5.40;;;25.80;99.90;;;;;;4986280;28;20432;-76
2022/08/28 12:51:03;;;;;;;9.20;6.20;;;25.80;99.90;;;;;;4986168;28;20485;-77
2022/08/28 12:53:38;;;;;;;8.60;5.70;;;25.80;99.90;;;;;;4985543;28;20455;-77
2022/08/28 12:56:07;;;;;;;8.37;5.63;;;25.70;99.90;;;;;;4985437;28;21437;-75
2022/08/28 12:58:38;;;;;;;6.37;5.40;;;25.60;99.90;;;;;;4986884;28;20503;-76
2022/08/28 13:01:07;;;;;;;8.70;5.60;;;25.50;99.90;;;;;;4985783;28;20583;-77
2022/08/28 13:03:43;;;;;;;7.83;5.70;;;25.50;99.90;;;;;;4985735;28;20467;-77
2022/08/28 13:06:10;;;;;;;12.23;6.40;;;25.50;99.90;;;;;;4985536;28;20443;-77
2022/08/28 13:08:37;;;;;;;6.00;5.40;;;25.40;99.90;;;;;;4985535;28;20466;-77
2022/08/28 13:11:04;;;;;;;13.77;5.13;;;25.30;99.90;;;;;;4986025;28;20490;-77
2022/08/28 13:13:36;;;;;;;9.77;5.77;;;25.30;99.90;;;;;;4987584;28;20470;-81
2022/08/28 13:16:05;;;;;;;9.43;5.60;;;25.30;99.90;;;;;;4986773;28;20993;-75
2022/08/28 13:18:46;;;;;;;8.07;5.40;;;25.50;99.90;;;;;;4986653;28;20503;-78
2022/08/28 13:21:33;;;;;;;6.40;5.37;;;25.60;99.90;;;;;;4986790;28;21340;-77
2022/08/28 13:24:16;;;;;;;8.27;5.37;;;25.70;99.90;;;;;;4987715;28;20551;-76
2022/08/28 13:26:43;;;;;;;7.70;5.37;;;25.80;99.90;;;;;;4987807;28;20466;-76
2022/08/28 13:29:18;;;;;;;6.07;4.70;;;26.00;99.90;;;;;;4987243;28;20497;-77
2022/08/28 13:31:55;;;;;;;6.27;4.80;;;26.20;99.90;;;;;;4986216;28;20481;-77
2022/08/28 13:34:25;;;;;;;5.20;4.70;;;26.30;99.90;;;;;;4985242;28;20459;-76
2022/08/28 13:36:56;;;;;;;10.20;5.13;;;26.40;99.90;;;;;;4986590;28;20451;-77
2022/08/28 13:39:23;;;;;;;8.10;4.63;;;26.50;99.90;;;;;;4986391;28;21018;-74
2022/08/28 13:41:53;;;;;;;5.50;5.00;;;26.50;99.90;;;;;;4986348;28;20730;-77
2022/08/28 13:44:28;;;;;;;7.37;4.93;;;26.60;99.90;;;;;;4985557;28;20952;-76
2022/08/28 13:46:55;;;;;;;5.90;4.50;;;26.50;99.90;;;;;;4988519;28;20459;-77
2022/08/28 13:49:23;;;;;;;7.00;5.30;;;26.40;99.90;;;;;;4988581;28;20575;-75
2022/08/28 13:51:50;;;;;;;6.30;4.40;;;26.40;99.90;;;;;;4989202;28;20482;-75
2022/08/28 13:54:17;;;;;;;6.90;4.80;;;26.40;99.90;;;;;;4990406;28;20472;-76
2022/08/28 13:56:44;;;;;;;6.70;4.93;;;26.40;99.90;;;;;;4991379;28;20459;-76
2022/08/28 13:59:11;;;;;;;5.37;4.80;;;26.40;99.90;;;;;;4992612;28;20496;-75
2022/08/28 14:04:25;;;;;;;9.77;4.63;;;26.60;99.90;;;;;;4989662;28;20500;-76
2022/08/28 14:06:52;;;;;;;4.93;4.37;;;26.80;99.90;;;;;;4990566;28;20463;-77
2022/08/28 14:09:19;;;;;;;4.93;4.50;;;26.80;99.90;;;;;;4990273;28;21325;-77
2022/08/28 14:11:47;;;;;;;8.33;4.30;;;26.90;99.90;;;;;;4990075;28;20481;-77
2022/08/28 14:14:14;;;;;;;10.00;4.00;;;27.00;99.90;;;;;;4990086;28;20467;-75
2022/08/28 14:16:43;;;;;;;5.07;4.57;;;27.10;99.90;;;;;;4994262;28;21026;-77
2022/08/28 14:19:10;;;;;;;5.87;4.03;;;27.20;99.90;;;;;;4993622;28;20506;-76
2022/08/28 14:21:41;;;;;;;10.03;5.00;;;27.20;99.90;;;;;;4993562;28;20499;-77
2022/08/28 14:24:08;;;;;;;5.80;4.33;;;27.10;99.90;;;;;;4993901;28;20440;-75
2022/08/28 14:26:35;;;;;;;6.13;4.30;;;27.10;99.90;;;;;;4993532;28;20474;-77
2022/08/28 14:29:05;;;;;;;4.70;3.87;;;27.10;99.90;;;;;;4993808;28;20510;-77
2022/08/28 14:31:34;;;;;;;4.40;4.00;;;27.20;99.90;;;;;;4993014;28;21224;-77
2022/08/28 14:34:01;;;;;;;6.60;4.87;;;27.20;99.90;;;;;;4993578;28;20486;-78
2022/08/28 14:36:30;;;;;;;5.07;4.53;;;27.30;99.90;;;;;;4992419;28;20521;-76
2022/08/28 14:39:00;;;;;;;5.40;4.00;;;27.30;99.90;;;;;;4992561;28;20639;-77
2022/08/28 14:41:27;;;;;;;4.63;4.13;;;27.30;99.90;;;;;;4992476;28;20487;-77
2022/08/28 14:43:55;;;;;;;6.50;4.30;;;27.40;99.90;;;;;;4993862;28;21015;-77
2022/08/28 14:46:24;;;;;;;10.23;5.67;;;27.40;99.90;;;;;;4992389;28;20933;-76
2022/08/28 14:48:51;;;;;;;8.00;4.60;;;27.40;99.90;;;;;;4994411;28;20538;-79
2022/08/28 14:51:18;;;;;;;8.93;4.50;;;27.40;99.90;;;;;;4993024;28;20483;-74
2022/08/28 14:53:46;;;;;;;10.97;5.00;;;27.40;99.90;;;;;;4992941;28;20510;-75
2022/08/28 14:56:14;;;;;;;7.67;4.27;;;27.40;99.90;;;;;;4991917;28;20542;-79
2022/08/28 14:58:41;;;;;;;5.90;4.70;;;27.40;99.90;;;;;;4992739;28;20553;-76
2022/08/28 15:01:10;;;;;;;5.20;4.43;;;27.30;99.90;;;;;;4991724;28;20491;-75
2022/08/28 15:03:37;;;;;;;5.60;4.10;;;27.10;99.90;;;;;;4991211;28;20489;-77
2022/08/28 15:06:06;;;;;;;5.03;4.17;;;27.10;99.90;;;;;;4990838;28;20546;-74
2022/08/28 15:08:34;;;;;;;5.83;4.60;;;27.20;99.90;;;;;;4989662;28;20557;-75
2022/08/28 15:11:05;;;;;;;7.00;3.90;;;27.30;99.90;;;;;;4989118;28;20492;-79
2022/08/28 15:13:34;;;;;;;6.03;4.40;;;27.30;99.90;;;;;;4988208;28;20456;-76
2022/08/28 15:16:02;;;;;;;4.70;4.20;;;27.40;99.90;;;;;;4989188;28;20521;-76
2022/08/28 15:18:29;;;;;;;4.70;3.87;;;27.30;99.90;;;;;;4989010;28;20497;-79
2022/08/28 15:20:56;;;;;;;6.33;4.30;;;27.20;99.90;;;;;;4988629;28;20472;-76
2022/08/28 15:23:23;;;;;;;4.83;3.90;;;27.20;99.90;;;;;;4989354;28;20454;-75
2022/08/28 15:25:50;;;;;;;9.90;4.40;;;27.20;99.90;;;;;;4988356;28;20826;-77
2022/08/28 15:28:17;;;;;;;6.63;4.37;;;27.10;99.90;;;;;;4989918;28;20452;-74
2022/08/28 15:30:46;;;;;;;5.10;4.10;;;27.00;99.90;;;;;;4990389;28;20475;-76
2022/08/28 15:33:14;;;;;;;8.73;4.67;;;26.90;99.90;;;;;;4990252;28;20452;-76
2022/08/28 15:35:41;;;;;;;5.50;4.53;;;26.90;99.90;;;;;;4986321;28;20456;-75
2022/08/28 15:38:08;;;;;;;10.07;4.37;;;26.80;99.90;;;;;;4986622;28;20501;-75
2022/08/28 15:43:20;;;;;;;5.37;4.70;;;26.70;99.90;;;;;;4988175;28;20435;-76
2022/08/28 15:45:48;;;;;;;7.17;4.10;;;26.60;99.90;;;;;;4987597;28;20455;-76
2022/08/28 15:48:15;;;;;;;5.80;4.97;;;26.50;99.90;;;;;;4988635;28;20743;-69
2022/08/28 15:50:43;;;;;;;5.83;4.53;;;26.40;99.90;;;;;;4990960;28;20475;-71
2022/08/28 15:53:10;;;;;;;4.40;4.00;;;26.30;99.90;;;;;;4978850;28;20462;-71
2022/08/28 15:55:37;;;;;;;5.70;4.10;;;26.30;99.90;;;;;;4991388;28;20546;-71
2022/08/28 15:58:04;;;;;;;6.40;4.53;;;26.20;99.90;;;;;;4991453;28;20466;-71
2022/08/28 16:00:31;;;;;;;6.23;5.00;;;26.10;99.90;;;;;;4991057;28;20974;-71
2022/08/28 16:02:59;;;;;;;5.10;4.27;;;26.10;99.90;;;;;;4991735;28;20462;-71
2022/08/28 16:05:27;;;;;;;7.00;4.10;;;26.10;99.90;;;;;;4991114;28;21015;-70
2022/08/28 16:07:54;;;;;;;6.27;4.57;;;26.00;99.90;;;;;;4988655;28;20483;-71
2022/08/28 16:10:21;;;;;;;5.83;4.20;;;26.00;99.90;;;;;;4989763;28;20622;-72
2022/08/28 16:12:48;;;;;;;5.20;4.03;;;25.90;99.90;;;;;;4987220;28;20472;-72
2022/08/28 16:15:15;;;;;;;6.90;4.50;;;25.90;99.90;;;;;;4988275;28;20962;-71
2022/08/28 16:17:42;;;;;;;4.40;3.90;;;25.90;99.90;;;;;;4988195;28;20519;-71
2022/08/28 16:20:11;;;;;;;4.90;4.40;;;25.80;99.90;;;;;;4988603;28;20496;-71
2022/08/28 16:22:38;;;;;;;7.73;4.20;;;25.70;99.90;;;;;;4989071;28;20479;-70
2022/08/28 16:25:06;;;;;;;5.30;4.10;;;25.80;99.90;;;;;;4988188;28;20463;-70
2022/08/28 16:27:34;;;;;;;5.70;4.63;;;25.80;99.90;;;;;;4989550;28;20460;-72
2022/08/28 16:30:01;;;;;;;5.20;4.70;;;25.80;99.90;;;;;;4987578;28;20462;-72
2022/08/28 16:32:28;;;;;;;5.83;4.70;;;25.80;99.90;;;;;;4987029;28;20489;-72
2022/08/28 16:34:55;;;;;;;7.83;6.07;;;25.80;99.90;;;;;;4986373;28;20466;-71
2022/08/28 16:37:23;;;;;;;9.77;5.23;;;25.80;99.90;;;;;;4986512;28;20459;-71
2022/08/28 16:39:53;;;;;;;6.17;5.40;;;25.80;99.90;;;;;;4986731;28;20495;-71
2022/08/28 16:42:20;;;;;;;7.90;5.03;;;25.80;99.90;;;;;;4986343;28;20518;-72
2022/08/28 16:44:47;;;;;;;6.53;4.90;;;25.80;99.90;;;;;;4985744;28;20841;-72
2022/08/28 16:47:14;;;;;;;5.27;4.47;;;25.70;99.90;;;;;;4986669;28;20809;-77
2022/08/28 16:49:41;;;;;;;7.60;4.77;;;25.80;99.90;;;;;;4986872;28;20463;-77
2022/08/28 16:52:08;;;;;;;10.53;5.20;;;25.80;99.90;;;;;;4989985;28;20516;-76
2022/08/28 16:54:36;;;;;;;6.67;4.93;;;25.80;99.90;;;;;;4986400;28;20975;-77
2022/08/28 16:57:03;;;;;;;5.73;4.50;;;25.70;99.90;;;;;;4986023;28;21143;-78
2022/08/28 16:59:30;;;;;;;5.57;4.63;;;25.80;99.90;;;;;;4988176;28;20591;-76
2022/08/28 17:01:59;;;;;;;7.90;4.40;;;25.80;99.90;;;;;;4986905;28;21431;-77
2022/08/28 17:04:25;;;;;;;5.43;4.60;;;25.80;99.90;;;;;;4984051;28;20486;-70
2022/08/28 17:06:52;;;;;;;6.07;4.23;;;25.70;99.90;;;;;;4985320;28;20990;-71